sensor_id;sensor_type;location;lat;lon;timestamp;pressure;altitude;pressure_sealevel;temperature;humidity
43153;BME280;28756;49.064;9.290;2022-07-29T00:01:21;98871.31;;;17.13;90.75
43153;BME280;28756;49.064;9.290;2022-07-29T00:03:47;98868.38;;;17.06;90.09
43153;BME280;28756;49.064;9.290;2022-07-29T00:06:14;98863.41;;;17.03;90.21
43153;BME280;28756;49.064;9.290;2022-07-29T00:08:40;98857.44;;;17.01;89.75
43153;BME280;28756;49.064;9.290;2022-07-29T00:11:06;98850.91;;;16.95;90.27
43153;BME280;28756;49.064;9.290;2022-07-29T00:13:31;98865.25;;;16.91;91.66
43153;BME280;28756;49.064;9.290;2022-07-29T00:15:57;98865.78;;;16.85;92.30
43153;BME280;28756;49.064;9.290;2022-07-29T00:18:32;98863.63;;;16.79;91.44
43153;BME280;28756;49.064;9.290;2022-07-29T00:21:06;98852.31;;;16.78;91.73
43153;BME280;28756;49.064;9.290;2022-07-29T00:23:35;98841.63;;;16.70;92.26
43153;BME280;28756;49.064;9.290;2022-07-29T00:26:01;98849.75;;;16.67;92.39
43153;BME280;28756;49.064;9.290;2022-07-29T00:28:29;98845.88;;;16.61;92.26
43153;BME280;28756;49.064;9.290;2022-07-29T00:30:57;98848.16;;;16.54;93.01
43153;BME280;28756;49.064;9.290;2022-07-29T00:33:23;98849.63;;;16.47;93.43
43153;BME280;28756;49.064;9.290;2022-07-29T00:35:49;98844.78;;;16.31;95.02
43153;BME280;28756;49.064;9.290;2022-07-29T00:38:18;98845.16;;;16.26;95.49
43153;BME280;28756;49.064;9.290;2022-07-29T00:40:44;98844.38;;;16.15;95.34
43153;BME280;28756;49.064;9.290;2022-07-29T00:43:12;98844.06;;;16.08;96.05
43153;BME280;28756;49.064;9.290;2022-07-29T00:45:40;98838.13;;;16.06;96.11
43153;BME280;28756;49.064;9.290;2022-07-29T00:48:06;98830.38;;;16.04;95.71
43153;BME280;28756;49.064;9.290;2022-07-29T00:50:34;98830.47;;;16.03;96.49
43153;BME280;28756;49.064;9.290;2022-07-29T00:53:02;98825.50;;;16.00;96.08
43153;BME280;28756;49.064;9.290;2022-07-29T00:55:29;98823.69;;;16.00;96.02
43153;BME280;28756;49.064;9.290;2022-07-29T00:57:55;98820.13;;;16.01;96.42
43153;BME280;28756;49.064;9.290;2022-07-29T01:00:24;98818.72;;;15.97;96.79
43153;BME280;28756;49.064;9.290;2022-07-29T01:02:50;98820.03;;;15.91;96.42
43153;BME280;28756;49.064;9.290;2022-07-29T01:05:23;98820.28;;;15.88;96.27
43153;BME280;28756;49.064;9.290;2022-07-29T01:07:52;98819.59;;;15.86;95.96
43153;BME280;28756;49.064;9.290;2022-07-29T01:10:20;98819.94;;;15.82;95.95
43153;BME280;28756;49.064;9.290;2022-07-29T01:12:49;98813.84;;;15.81;95.58
43153;BME280;28756;49.064;9.290;2022-07-29T01:15:15;98821.72;;;15.81;96.06
43153;BME280;28756;49.064;9.290;2022-07-29T01:18:01;98821.00;;;15.79;95.95
43153;BME280;28756;49.064;9.290;2022-07-29T01:26:45;98831.06;;;15.62;96.40
43153;BME280;28756;49.064;9.290;2022-07-29T01:29:16;98826.19;;;15.58;96.95
43153;BME280;28756;49.064;9.290;2022-07-29T01:32:11;98830.25;;;15.51;97.20
43153;BME280;28756;49.064;9.290;2022-07-29T01:35:03;98821.78;;;15.47;97.55
43153;BME280;28756;49.064;9.290;2022-07-29T01:40:00;98828.00;;;15.46;97.49
43153;BME280;28756;49.064;9.290;2022-07-29T01:42:36;98824.53;;;15.45;97.59
43153;BME280;28756;49.064;9.290;2022-07-29T01:48:20;98821.44;;;15.40;97.94
43153;BME280;28756;49.064;9.290;2022-07-29T01:50:53;98822.63;;;15.36;98.18
43153;BME280;28756;49.064;9.290;2022-07-29T01:53:35;98823.69;;;15.34;98.61
43153;BME280;28756;49.064;9.290;2022-07-29T01:56:02;98824.78;;;15.31;98.50
43153;BME280;28756;49.064;9.290;2022-07-29T01:58:29;98818.59;;;15.32;98.23
43153;BME280;28756;49.064;9.290;2022-07-29T02:00:58;98821.22;;;15.32;98.49
43153;BME280;28756;49.064;9.290;2022-07-29T02:03:26;98824.78;;;15.31;98.30
43153;BME280;28756;49.064;9.290;2022-07-29T02:05:55;98820.63;;;15.28;98.87
43153;BME280;28756;49.064;9.290;2022-07-29T02:08:22;98820.63;;;15.28;98.94
43153;BME280;28756;49.064;9.290;2022-07-29T02:10:50;98824.53;;;15.23;99.66
43153;BME280;28756;49.064;9.290;2022-07-29T02:13:19;98817.31;;;15.15;99.46
43153;BME280;28756;49.064;9.290;2022-07-29T02:15:47;98813.13;;;15.12;99.27
43153;BME280;28756;49.064;9.290;2022-07-29T02:18:19;98816.59;;;15.13;99.29
43153;BME280;28756;49.064;9.290;2022-07-29T02:20:53;98816.69;;;15.11;99.18
43153;BME280;28756;49.064;9.290;2022-07-29T02:23:23;98817.66;;;15.10;99.50
43153;BME280;28756;49.064;9.290;2022-07-29T02:25:52;98812.53;;;15.09;99.22
43153;BME280;28756;49.064;9.290;2022-07-29T02:28:19;98811.81;;;15.07;99.31
43153;BME280;28756;49.064;9.290;2022-07-29T02:30:46;98813.94;;;15.02;99.41
43153;BME280;28756;49.064;9.290;2022-07-29T02:33:15;98808.84;;;15.00;99.35
43153;BME280;28756;49.064;9.290;2022-07-29T02:35:43;98806.22;;;15.00;99.44
43153;BME280;28756;49.064;9.290;2022-07-29T02:38:14;98812.28;;;15.00;99.96
43153;BME280;28756;49.064;9.290;2022-07-29T02:41:10;98814.22;;;14.98;100.00
43153;BME280;28756;49.064;9.290;2022-07-29T02:43:37;98808.72;;;14.90;99.71
43153;BME280;28756;49.064;9.290;2022-07-29T02:46:13;98813.38;;;14.87;99.63
43153;BME280;28756;49.064;9.290;2022-07-29T02:51:59;98812.03;;;14.92;99.88
43153;BME280;28756;49.064;9.290;2022-07-29T02:54:46;98804.53;;;14.88;99.68
43153;BME280;28756;49.064;9.290;2022-07-29T02:57:35;98810.97;;;14.83;99.87
43153;BME280;28756;49.064;9.290;2022-07-29T03:00:07;98812.78;;;14.83;99.97
43153;BME280;28756;49.064;9.290;2022-07-29T03:02:37;98801.94;;;14.76;100.00
43153;BME280;28756;49.064;9.290;2022-07-29T03:05:08;98801.78;;;14.78;100.00
43153;BME280;28756;49.064;9.290;2022-07-29T03:07:35;98796.09;;;14.73;100.00
43153;BME280;28756;49.064;9.290;2022-07-29T03:10:04;98801.69;;;14.68;100.00
43153;BME280;28756;49.064;9.290;2022-07-29T03:12:31;98804.47;;;14.65;100.00
43153;BME280;28756;49.064;9.290;2022-07-29T03:14:58;98808.06;;;14.64;100.00
43153;BME280;28756;49.064;9.290;2022-07-29T03:17:26;98808.41;;;14.59;100.00
43153;BME280;28756;49.064;9.290;2022-07-29T03:19:52;98808.41;;;14.59;100.00
43153;BME280;28756;49.064;9.290;2022-07-29T03:22:19;98814.81;;;14.55;100.00
43153;BME280;28756;49.064;9.290;2022-07-29T03:24:44;98811.81;;;14.48;100.00
43153;BME280;28756;49.064;9.290;2022-07-29T03:27:10;98812.78;;;14.47;100.00
43153;BME280;28756;49.064;9.290;2022-07-29T03:29:36;98815.41;;;14.47;100.00
43153;BME280;28756;49.064;9.290;2022-07-29T03:32:04;98812.06;;;14.45;100.00
43153;BME280;28756;49.064;9.290;2022-07-29T03:34:31;98808.97;;;14.40;100.00
43153;BME280;28756;49.064;9.290;2022-07-29T03:36:56;98813.84;;;14.45;100.00
43153;BME280;28756;49.064;9.290;2022-07-29T03:39:26;98813.84;;;14.45;100.00
43153;BME280;28756;49.064;9.290;2022-07-29T03:41:56;98820.13;;;14.42;100.00
43153;BME280;28756;49.064;9.290;2022-07-29T03:44:25;98816.19;;;14.36;100.00
43153;BME280;28756;49.064;9.290;2022-07-29T03:46:52;98824.28;;;14.33;100.00
43153;BME280;28756;49.064;9.290;2022-07-29T03:49:28;98816.56;;;14.32;100.00
43153;BME280;28756;49.064;9.290;2022-07-29T03:51:57;98819.41;;;14.29;100.00
43153;BME280;28756;49.064;9.290;2022-07-29T03:54:44;98814.88;;;14.31;100.00
43153;BME280;28756;49.064;9.290;2022-07-29T03:57:18;98818.44;;;14.30;100.00
43153;BME280;28756;49.064;9.290;2022-07-29T03:59:49;98812.50;;;14.28;100.00
43153;BME280;28756;49.064;9.290;2022-07-29T04:02:17;98809.16;;;14.26;100.00
43153;BME280;28756;49.064;9.290;2022-07-29T04:04:43;98815.84;;;14.30;100.00
43153;BME280;28756;49.064;9.290;2022-07-29T04:07:17;98816.44;;;14.33;100.00
43153;BME280;28756;49.064;9.290;2022-07-29T04:09:46;98810.88;;;14.38;100.00
43153;BME280;28756;49.064;9.290;2022-07-29T04:12:12;98810.53;;;14.43;100.00
43153;BME280;28756;49.064;9.290;2022-07-29T04:14:38;98811.59;;;14.40;100.00
43153;BME280;28756;49.064;9.290;2022-07-29T04:17:04;98813.47;;;14.38;100.00
43153;BME280;28756;49.064;9.290;2022-07-29T04:19:33;98816.91;;;14.38;100.00
43153;BME280;28756;49.064;9.290;2022-07-29T04:22:11;98814.09;;;14.42;100.00
43153;BME280;28756;49.064;9.290;2022-07-29T04:24:39;98823.25;;;14.47;100.00
43153;BME280;28756;49.064;9.290;2022-07-29T04:27:15;98818.28;;;14.56;100.00
43153;BME280;28756;49.064;9.290;2022-07-29T04:29:49;98823.06;;;14.62;100.00
43153;BME280;28756;49.064;9.290;2022-07-29T04:32:16;98819.28;;;14.66;100.00
43153;BME280;28756;49.064;9.290;2022-07-29T04:34:51;98821.53;;;14.71;100.00
43153;BME280;28756;49.064;9.290;2022-07-29T04:37:17;98825.00;;;14.82;100.00
43153;BME280;28756;49.064;9.290;2022-07-29T04:39:43;98820.16;;;14.89;100.00
43153;BME280;28756;49.064;9.290;2022-07-29T04:42:14;98823.34;;;14.93;100.00
43153;BME280;28756;49.064;9.290;2022-07-29T04:44:40;98821.09;;;14.99;100.00
43153;BME280;28756;49.064;9.290;2022-07-29T04:47:08;98818.59;;;15.09;100.00
43153;BME280;28756;49.064;9.290;2022-07-29T04:49:34;98824.78;;;15.20;100.00
43153;BME280;28756;49.064;9.290;2022-07-29T04:51:59;98827.75;;;15.26;100.00
43153;BME280;28756;49.064;9.290;2022-07-29T04:54:28;98808.84;;;15.34;100.00
43153;BME280;28756;49.064;9.290;2022-07-29T04:56:54;98814.63;;;15.49;100.00
43153;BME280;28756;49.064;9.290;2022-07-29T04:59:20;98815.81;;;15.56;99.58
43153;BME280;28756;49.064;9.290;2022-07-29T05:01:45;98812.59;;;15.64;99.38
43153;BME280;28756;49.064;9.290;2022-07-29T05:04:11;98818.41;;;15.68;99.34
43153;BME280;28756;49.064;9.290;2022-07-29T05:06:37;98814.72;;;15.70;98.61
43153;BME280;28756;49.064;9.290;2022-07-29T05:09:03;98818.06;;;15.72;99.15
43153;BME280;28756;49.064;9.290;2022-07-29T05:11:28;98818.38;;;15.79;99.17
43153;BME280;28756;49.064;9.290;2022-07-29T05:13:54;98824.31;;;15.81;98.06
43153;BME280;28756;49.064;9.290;2022-07-29T05:16:20;98817.56;;;15.90;98.21
43153;BME280;28756;49.064;9.290;2022-07-29T05:18:46;98824.78;;;15.98;98.52
43153;BME280;28756;49.064;9.290;2022-07-29T05:21:12;98821.34;;;15.97;97.96
43153;BME280;28756;49.064;9.290;2022-07-29T05:23:38;98811.75;;;16.07;97.72
43153;BME280;28756;49.064;9.290;2022-07-29T05:26:03;98818.06;;;16.16;97.18
43153;BME280;28756;49.064;9.290;2022-07-29T05:28:34;98811.63;;;16.30;97.37
43153;BME280;28756;49.064;9.290;2022-07-29T05:31:00;98814.59;;;16.37;97.42
43153;BME280;28756;49.064;9.290;2022-07-29T05:33:26;98812.16;;;16.45;97.33
43153;BME280;28756;49.064;9.290;2022-07-29T05:35:51;98816.09;;;16.51;97.89
43153;BME280;28756;49.064;9.290;2022-07-29T05:38:17;98820.09;;;16.55;98.05
43153;BME280;28756;49.064;9.290;2022-07-29T05:40:43;98817.00;;;16.61;98.40
43153;BME280;28756;49.064;9.290;2022-07-29T05:43:08;98821.56;;;16.69;98.40
43153;BME280;28756;49.064;9.290;2022-07-29T05:45:34;98820.97;;;17.08;97.17
43153;BME280;28756;49.064;9.290;2022-07-29T05:48:00;98823.22;;;17.12;96.24
43153;BME280;28756;49.064;9.290;2022-07-29T05:50:26;98826.69;;;17.23;95.73
43153;BME280;28756;49.064;9.290;2022-07-29T05:52:51;98830.72;;;17.27;95.64
43153;BME280;28756;49.064;9.290;2022-07-29T05:55:17;98821.81;;;17.18;96.00
43153;BME280;28756;49.064;9.290;2022-07-29T05:57:43;98825.97;;;17.20;95.68
43153;BME280;28756;49.064;9.290;2022-07-29T06:00:11;98830.06;;;17.34;95.17
43153;BME280;28756;49.064;9.290;2022-07-29T06:02:37;98827.66;;;17.62;94.07
43153;BME280;28756;49.064;9.290;2022-07-29T06:05:03;98819.38;;;18.55;90.97
43153;BME280;28756;49.064;9.290;2022-07-29T06:07:28;98832.03;;;19.37;84.65
43153;BME280;28756;49.064;9.290;2022-07-29T06:09:54;98822.56;;;19.44;82.33
43153;BME280;28756;49.064;9.290;2022-07-29T06:12:20;98827.03;;;19.62;82.52
43153;BME280;28756;49.064;9.290;2022-07-29T06:14:46;98825.69;;;19.57;82.75
43153;BME280;28756;49.064;9.290;2022-07-29T06:17:11;98834.03;;;19.99;82.00
43153;BME280;28756;49.064;9.290;2022-07-29T06:19:37;98832.81;;;20.11;81.38
43153;BME280;28756;49.064;9.290;2022-07-29T06:22:03;98831.22;;;20.55;79.90
43153;BME280;28756;49.064;9.290;2022-07-29T06:24:29;98830.22;;;20.38;79.27
43153;BME280;28756;49.064;9.290;2022-07-29T06:26:55;98834.59;;;20.47;79.53
43153;BME280;28756;49.064;9.290;2022-07-29T06:29:21;98836.19;;;20.40;80.30
43153;BME280;28756;49.064;9.290;2022-07-29T06:31:47;98828.47;;;20.64;79.37
43153;BME280;28756;49.064;9.290;2022-07-29T06:34:12;98831.28;;;20.89;78.46
43153;BME280;28756;49.064;9.290;2022-07-29T06:36:39;98836.41;;;20.91;79.28
43153;BME280;28756;49.064;9.290;2022-07-29T06:39:06;98823.66;;;21.21;79.67
43153;BME280;28756;49.064;9.290;2022-07-29T06:41:33;98827.84;;;20.97;80.54
43153;BME280;28756;49.064;9.290;2022-07-29T06:43:59;98835.50;;;21.43;78.84
43153;BME280;28756;49.064;9.290;2022-07-29T06:46:25;98829.34;;;21.77;78.31
43153;BME280;28756;49.064;9.290;2022-07-29T06:48:51;98832.66;;;21.79;77.52
43153;BME280;28756;49.064;9.290;2022-07-29T06:51:17;98831.19;;;21.85;76.21
43153;BME280;28756;49.064;9.290;2022-07-29T06:53:43;98836.47;;;21.93;75.09
43153;BME280;28756;49.064;9.290;2022-07-29T06:56:09;98836.69;;;22.24;70.18
43153;BME280;28756;49.064;9.290;2022-07-29T06:58:35;98836.47;;;21.93;71.85
43153;BME280;28756;49.064;9.290;2022-07-29T07:01:04;98838.31;;;21.92;68.59
43153;BME280;28756;49.064;9.290;2022-07-29T07:03:30;98836.72;;;22.41;70.35
43153;BME280;28756;49.064;9.290;2022-07-29T07:05:57;98840.16;;;22.83;68.09
43153;BME280;28756;49.064;9.290;2022-07-29T07:08:23;98828.38;;;22.85;68.00
43153;BME280;28756;49.064;9.290;2022-07-29T07:10:51;98834.34;;;22.79;69.93
43153;BME280;28756;49.064;9.290;2022-07-29T07:13:17;98835.38;;;22.53;71.02
43153;BME280;28756;49.064;9.290;2022-07-29T07:15:44;98844.94;;;21.97;68.92
43153;BME280;28756;49.064;9.290;2022-07-29T07:18:10;98835.38;;;22.45;68.30
43153;BME280;28756;49.064;9.290;2022-07-29T07:20:37;98836.50;;;22.84;67.64
43153;BME280;28756;49.064;9.290;2022-07-29T07:23:06;98827.72;;;23.40;66.92
43153;BME280;28756;49.064;9.290;2022-07-29T07:25:32;98836.22;;;23.98;63.44
43153;BME280;28756;49.064;9.290;2022-07-29T07:27:58;98834.91;;;24.17;61.86
43153;BME280;28756;49.064;9.290;2022-07-29T07:30:24;98833.88;;;24.41;62.42
43153;BME280;28756;49.064;9.290;2022-07-29T07:32:49;98828.56;;;24.95;62.96
43153;BME280;28756;49.064;9.290;2022-07-29T07:35:16;98825.38;;;24.99;58.76
43153;BME280;28756;49.064;9.290;2022-07-29T07:37:42;98830.22;;;24.42;62.76
43153;BME280;28756;49.064;9.290;2022-07-29T07:40:09;98831.41;;;24.17;60.29
43153;BME280;28756;49.064;9.290;2022-07-29T07:42:38;98839.28;;;24.10;62.50
43153;BME280;28756;49.064;9.290;2022-07-29T07:45:04;98840.25;;;24.32;59.55
43153;BME280;28756;49.064;9.290;2022-07-29T07:47:31;98830.59;;;23.61;61.68
43153;BME280;28756;49.064;9.290;2022-07-29T07:49:57;98835.50;;;24.04;59.14
43153;BME280;28756;49.064;9.290;2022-07-29T07:52:23;98829.13;;;24.52;58.95
43153;BME280;28756;49.064;9.290;2022-07-29T07:54:49;98820.25;;;24.98;57.96
43153;BME280;28756;49.064;9.290;2022-07-29T07:57:15;98822.06;;;24.97;57.12
43153;BME280;28756;49.064;9.290;2022-07-29T07:59:41;98831.00;;;24.05;59.32
43153;BME280;28756;49.064;9.290;2022-07-29T08:02:08;98824.56;;;24.22;59.68
43153;BME280;28756;49.064;9.290;2022-07-29T08:04:37;98830.72;;;24.00;60.06
43153;BME280;28756;49.064;9.290;2022-07-29T08:07:04;98833.69;;;24.43;58.90
43153;BME280;28756;49.064;9.290;2022-07-29T08:09:30;98823.25;;;24.95;57.41
43153;BME280;28756;49.064;9.290;2022-07-29T08:11:57;98837.97;;;24.06;57.28
43153;BME280;28756;49.064;9.290;2022-07-29T08:14:24;98829.47;;;24.10;61.15
43153;BME280;28756;49.064;9.290;2022-07-29T08:16:49;98831.84;;;24.05;58.22
43153;BME280;28756;49.064;9.290;2022-07-29T08:19:16;98826.81;;;23.56;59.08
43153;BME280;28756;49.064;9.290;2022-07-29T08:21:42;98834.06;;;24.40;60.57
43153;BME280;28756;49.064;9.290;2022-07-29T08:24:07;98823.31;;;24.71;60.46
43153;BME280;28756;49.064;9.290;2022-07-29T08:26:51;98835.13;;;24.07;59.54
43153;BME280;28756;49.064;9.290;2022-07-29T08:29:17;98829.03;;;24.45;58.55
43153;BME280;28756;49.064;9.290;2022-07-29T08:31:43;98831.69;;;24.83;59.29
43153;BME280;28756;49.064;9.290;2022-07-29T08:34:09;98837.72;;;24.77;56.12
43153;BME280;28756;49.064;9.290;2022-07-29T08:36:35;98826.66;;;25.18;60.19
43153;BME280;28756;49.064;9.290;2022-07-29T08:39:02;98821.88;;;25.65;57.09
43153;BME280;28756;49.064;9.290;2022-07-29T08:41:28;98824.63;;;25.72;54.89
43153;BME280;28756;49.064;9.290;2022-07-29T08:43:54;98829.94;;;25.87;56.07
43153;BME280;28756;49.064;9.290;2022-07-29T08:46:21;98833.72;;;25.41;55.90
43153;BME280;28756;49.064;9.290;2022-07-29T08:48:48;98830.03;;;25.79;54.72
43153;BME280;28756;49.064;9.290;2022-07-29T08:51:19;98823.59;;;26.60;53.54
43153;BME280;28756;49.064;9.290;2022-07-29T08:53:47;98826.09;;;25.08;56.26
43153;BME280;28756;49.064;9.290;2022-07-29T08:56:15;98822.94;;;26.29;53.57
43153;BME280;28756;49.064;9.290;2022-07-29T08:58:46;98828.25;;;25.64;54.11
43153;BME280;28756;49.064;9.290;2022-07-29T09:01:21;98819.91;;;26.32;54.35
43153;BME280;28756;49.064;9.290;2022-07-29T09:03:46;98813.16;;;27.35;51.64
43153;BME280;28756;49.064;9.290;2022-07-29T09:06:18;98820.81;;;25.96;54.20
43153;BME280;28756;49.064;9.290;2022-07-29T09:08:45;98816.28;;;25.75;53.35
43153;BME280;28756;49.064;9.290;2022-07-29T09:11:14;98824.91;;;26.42;54.78
43153;BME280;28756;49.064;9.290;2022-07-29T09:13:40;98817.28;;;26.11;52.91
43153;BME280;28756;49.064;9.290;2022-07-29T09:16:06;98821.16;;;25.72;53.24
43153;BME280;28756;49.064;9.290;2022-07-29T09:18:43;98821.59;;;26.12;54.14
43153;BME280;28756;49.064;9.290;2022-07-29T09:21:12;98810.31;;;26.95;54.02
43153;BME280;28756;49.064;9.290;2022-07-29T09:24:09;98814.50;;;26.47;53.23
43153;BME280;28756;49.064;9.290;2022-07-29T09:26:41;98819.53;;;25.92;53.47
43153;BME280;28756;49.064;9.290;2022-07-29T09:29:22;98815.22;;;26.35;54.77
43153;BME280;28756;49.064;9.290;2022-07-29T09:31:51;98814.59;;;26.32;52.80
43153;BME280;28756;49.064;9.290;2022-07-29T09:34:24;98819.13;;;25.74;53.25
43153;BME280;28756;49.064;9.290;2022-07-29T09:36:53;98814.22;;;26.36;52.55
43153;BME280;28756;49.064;9.290;2022-07-29T09:39:36;98815.47;;;26.68;54.38
43153;BME280;28756;49.064;9.290;2022-07-29T09:42:06;98813.84;;;26.17;53.81
43153;BME280;28756;49.064;9.290;2022-07-29T09:44:48;98803.13;;;26.67;52.16
43153;BME280;28756;49.064;9.290;2022-07-29T09:47:15;98803.09;;;27.93;50.77
43153;BME280;28756;49.064;9.290;2022-07-29T09:49:59;98803.59;;;27.48;47.99
43153;BME280;28756;49.064;9.290;2022-07-29T09:52:29;98795.53;;;28.36;49.14
43153;BME280;28756;49.064;9.290;2022-07-29T09:55:09;98798.38;;;28.48;47.36
43153;BME280;28756;49.064;9.290;2022-07-29T09:57:35;98785.94;;;29.01;46.83
43153;BME280;28756;49.064;9.290;2022-07-29T10:00:09;98795.06;;;28.73;44.73
43153;BME280;28756;49.064;9.290;2022-07-29T10:02:38;98794.28;;;28.39;47.93
43153;BME280;28756;49.064;9.290;2022-07-29T10:05:28;98783.09;;;28.82;46.21
43153;BME280;28756;49.064;9.290;2022-07-29T10:07:58;98788.38;;;29.09;43.04
43153;BME280;28756;49.064;9.290;2022-07-29T10:10:35;98789.34;;;29.28;44.87
43153;BME280;28756;49.064;9.290;2022-07-29T10:13:09;98799.16;;;27.26;49.32
43153;BME280;28756;49.064;9.290;2022-07-29T10:15:38;98803.28;;;26.30;50.46
43153;BME280;28756;49.064;9.290;2022-07-29T10:18:07;98795.94;;;26.61;48.59
43153;BME280;28756;49.064;9.290;2022-07-29T10:20:34;98799.75;;;26.23;51.84
43153;BME280;28756;49.064;9.290;2022-07-29T10:23:00;98782.38;;;28.08;46.58
43153;BME280;28756;49.064;9.290;2022-07-29T10:25:26;98781.91;;;28.58;44.01
43153;BME280;28756;49.064;9.290;2022-07-29T10:27:53;98787.50;;;28.16;46.21
43153;BME280;28756;49.064;9.290;2022-07-29T10:30:20;98780.50;;;28.35;44.05
43153;BME280;28756;49.064;9.290;2022-07-29T10:33:17;98774.78;;;29.11;45.98
43153;BME280;28756;49.064;9.290;2022-07-29T10:36:18;98784.81;;;28.36;47.80
43153;BME280;28756;49.064;9.290;2022-07-29T10:42:25;98759.75;;;29.87;41.86
43153;BME280;28756;49.064;9.290;2022-07-29T10:44:53;98765.97;;;30.38;43.12
43153;BME280;28756;49.064;9.290;2022-07-29T10:47:24;98765.03;;;29.69;43.26
43153;BME280;28756;49.064;9.290;2022-07-29T10:49:59;98770.56;;;28.76;43.91
43153;BME280;28756;49.064;9.290;2022-07-29T10:55:38;98768.75;;;28.03;43.66
43153;BME280;28756;49.064;9.290;2022-07-29T10:58:22;98750.56;;;28.92;43.90
43153;BME280;28756;49.064;9.290;2022-07-29T11:00:54;98760.75;;;29.22;44.02
43153;BME280;28756;49.064;9.290;2022-07-29T11:03:47;98765.91;;;27.29;43.80
43153;BME280;28756;49.064;9.290;2022-07-29T11:06:14;98770.41;;;27.22;45.39
43153;BME280;28756;49.064;9.290;2022-07-29T11:08:41;98763.78;;;27.86;45.15
43153;BME280;28756;49.064;9.290;2022-07-29T11:13:47;98750.38;;;29.71;41.06
43153;BME280;28756;49.064;9.290;2022-07-29T11:16:14;98746.41;;;29.49;40.59
43153;BME280;28756;49.064;9.290;2022-07-29T11:21:44;98737.22;;;28.86;37.78
43153;BME280;28756;49.064;9.290;2022-07-29T11:27:12;98733.69;;;29.69;38.46
43153;BME280;28756;49.064;9.290;2022-07-29T11:29:57;98731.00;;;28.92;40.93
43153;BME280;28756;49.064;9.290;2022-07-29T11:32:40;98723.97;;;29.75;38.10
43153;BME280;28756;49.064;9.290;2022-07-29T11:35:15;98730.34;;;29.49;37.53
43153;BME280;28756;49.064;9.290;2022-07-29T11:37:43;98724.09;;;29.87;38.04
43153;BME280;28756;49.064;9.290;2022-07-29T11:40:12;98729.44;;;29.93;37.42
43153;BME280;28756;49.064;9.290;2022-07-29T11:42:41;98727.63;;;30.13;38.13
43153;BME280;28756;49.064;9.290;2022-07-29T11:45:20;98731.25;;;30.44;38.86
43153;BME280;28756;49.064;9.290;2022-07-29T11:47:46;98735.00;;;29.92;37.92
43153;BME280;28756;49.064;9.290;2022-07-29T11:50:34;98753.91;;;27.60;40.56
43153;BME280;28756;49.064;9.290;2022-07-29T11:53:02;98745.31;;;27.98;41.49
43153;BME280;28756;49.064;9.290;2022-07-29T11:55:28;98751.69;;;27.97;40.85
43153;BME280;28756;49.064;9.290;2022-07-29T11:58:00;98745.13;;;28.27;40.39
43153;BME280;28756;49.064;9.290;2022-07-29T12:00:32;98742.66;;;28.25;40.90
43153;BME280;28756;49.064;9.290;2022-07-29T12:03:06;98740.56;;;28.54;40.32
43153;BME280;28756;49.064;9.290;2022-07-29T12:05:42;98734.00;;;28.50;40.19
43153;BME280;28756;49.064;9.290;2022-07-29T12:08:12;98726.59;;;28.45;41.44
43153;BME280;28756;49.064;9.290;2022-07-29T12:10:40;98726.00;;;28.30;42.54
43153;BME280;28756;49.064;9.290;2022-07-29T12:13:06;98719.19;;;27.67;42.87
43153;BME280;28756;49.064;9.290;2022-07-29T12:15:32;98721.25;;;27.98;41.63
43153;BME280;28756;49.064;9.290;2022-07-29T12:17:58;98724.09;;;27.43;42.50
43153;BME280;28756;49.064;9.290;2022-07-29T12:20:29;98725.41;;;28.21;43.36
43153;BME280;28756;49.064;9.290;2022-07-29T12:22:56;98718.19;;;27.88;40.19
43153;BME280;28756;49.064;9.290;2022-07-29T12:25:23;98707.47;;;28.48;42.98
43153;BME280;28756;49.064;9.290;2022-07-29T12:28:00;98710.16;;;28.35;38.76
43153;BME280;28756;49.064;9.290;2022-07-29T12:30:47;98706.88;;;28.33;40.01
43153;BME280;28756;49.064;9.290;2022-07-29T12:35:47;98716.38;;;28.15;41.15
43153;BME280;28756;49.064;9.290;2022-07-29T12:38:14;98718.56;;;27.51;41.87
43153;BME280;28756;49.064;9.290;2022-07-29T12:40:41;98716.91;;;27.50;42.58
43153;BME280;28756;49.064;9.290;2022-07-29T12:43:22;98716.94;;;27.70;43.35
43153;BME280;28756;49.064;9.290;2022-07-29T12:45:52;98718.97;;;27.48;41.42
43153;BME280;28756;49.064;9.290;2022-07-29T12:48:33;98708.44;;;27.40;41.38
43153;BME280;28756;49.064;9.290;2022-07-29T12:51:02;98717.44;;;27.25;42.26
43153;BME280;28756;49.064;9.290;2022-07-29T12:53:28;98704.38;;;26.89;41.46
43153;BME280;28756;49.064;9.290;2022-07-29T12:55:56;98711.63;;;27.02;41.39
43153;BME280;28756;49.064;9.290;2022-07-29T13:01:08;98718.88;;;27.28;42.68
43153;BME280;28756;49.064;9.290;2022-07-29T13:03:54;98716.53;;;27.80;42.07
43153;BME280;28756;49.064;9.290;2022-07-29T13:09:11;98725.75;;;27.44;46.88
43153;BME280;28756;49.064;9.290;2022-07-29T13:14:13;98727.25;;;27.11;45.57
43153;BME280;28756;49.064;9.290;2022-07-29T13:20:24;98737.69;;;26.64;47.62
43153;BME280;28756;49.064;9.290;2022-07-29T13:22:30;98735.13;;;26.78;49.41
43153;BME280;28756;49.064;9.290;2022-07-29T13:24:59;98729.31;;;27.16;47.46
43153;BME280;28756;49.064;9.290;2022-07-29T13:27:33;98730.56;;;27.27;47.34
43153;BME280;28756;49.064;9.290;2022-07-29T13:30:00;98740.31;;;26.58;46.75
43153;BME280;28756;49.064;9.290;2022-07-29T13:32:30;98747.06;;;26.54;47.19
43153;BME280;28756;49.064;9.290;2022-07-29T13:34:58;98753.13;;;26.12;47.88
43153;BME280;28756;49.064;9.290;2022-07-29T13:37:26;98757.34;;;26.28;48.46
43153;BME280;28756;49.064;9.290;2022-07-29T13:39:57;98757.09;;;26.52;49.00
43153;BME280;28756;49.064;9.290;2022-07-29T13:42:23;98748.53;;;26.28;47.01
43153;BME280;28756;49.064;9.290;2022-07-29T13:44:50;98759.53;;;25.96;47.84
43153;BME280;28756;49.064;9.290;2022-07-29T13:47:18;98755.81;;;26.41;48.54
43153;BME280;28756;49.064;9.290;2022-07-29T13:49:44;98749.53;;;26.27;46.67
43153;BME280;28756;49.064;9.290;2022-07-29T13:52:10;98749.09;;;26.23;47.35
43153;BME280;28756;49.064;9.290;2022-07-29T13:54:36;98742.19;;;26.29;47.93